createdAt,value
2022-08-31T00:02:07.572Z,18.8
2022-08-31T00:16:07.614Z,18.4
2022-08-31T00:30:07.613Z,18.3
2022-08-31T00:44:07.640Z,18.1
2022-08-31T00:58:07.665Z,18.0
2022-08-31T01:12:07.903Z,18.0
2022-08-31T01:26:07.779Z,18.0
2022-08-31T01:40:08.000Z,18.0
2022-08-31T01:54:07.845Z,18.1
2022-08-31T02:08:07.910Z,18.0
2022-08-31T02:22:07.952Z,17.9
2022-08-31T02:36:07.946Z,17.6
2022-08-31T02:50:08.098Z,17.6
2022-08-31T03:04:08.233Z,17.6
2022-08-31T03:18:08.248Z,17.5
2022-08-31T03:32:08.271Z,17.6
2022-08-31T03:46:12.266Z,17.6
2022-08-31T04:00:08.428Z,17.5
2022-08-31T04:14:08.435Z,17.5
2022-08-31T04:29:12.346Z,17.4
2022-08-31T04:44:08.603Z,17.4
2022-08-31T04:59:08.621Z,17.5
2022-08-31T05:14:08.659Z,17.3
2022-08-31T05:29:08.660Z,17.4
2022-08-31T05:44:08.685Z,17.9
2022-08-31T05:59:08.692Z,18.0
2022-08-31T06:14:08.712Z,18.5
2022-08-31T06:29:08.742Z,18.6
2022-08-31T06:44:08.771Z,18.3
2022-08-31T06:59:08.842Z,18.8
2022-08-31T07:14:08.848Z,19.1
2022-08-31T07:29:08.967Z,19.3
2022-08-31T07:44:09.051Z,19.9
2022-08-31T07:59:11.066Z,21.0
2022-08-31T08:15:09.034Z,22.6
2022-08-31T08:30:09.057Z,24.6
2022-08-31T08:46:25.516Z,25.8
2022-08-31T09:01:09.096Z,27.1
2022-08-31T09:16:09.108Z,27.3
2022-08-31T09:31:09.160Z,26.9
2022-08-31T09:46:09.362Z,27.6
2022-08-31T10:01:09.263Z,27.8
2022-08-31T10:16:09.317Z,28.0
2022-08-31T10:31:09.347Z,27.9
2022-08-31T10:47:32.634Z,28.2
2022-08-31T11:02:31.431Z,29.0
2022-08-31T11:17:31.578Z,29.1
2022-08-31T11:32:31.699Z,29.2
2022-08-31T11:48:32.532Z,29.2
2022-08-31T12:03:31.929Z,27.4
2022-08-31T12:18:31.999Z,26.9
2022-08-31T12:33:31.979Z,27.2
2022-08-31T12:48:32.061Z,26.8
2022-08-31T13:03:32.072Z,27.3
2022-08-31T13:18:32.144Z,27.4
2022-08-31T13:33:32.152Z,27.0
2022-08-31T13:48:32.271Z,26.7
2022-08-31T14:04:32.531Z,26.2
2022-08-31T14:19:32.458Z,26.6
2022-08-31T14:35:32.514Z,27.5
2022-08-31T14:50:32.562Z,28.4
2022-08-31T15:06:32.517Z,26.9
2022-08-31T15:22:32.527Z,25.8
2022-08-31T15:37:32.521Z,24.5
2022-08-31T15:52:32.542Z,23.1
2022-08-31T16:08:32.575Z,23.0
2022-08-31T16:23:32.613Z,24.6
2022-08-31T16:38:32.658Z,24.3
2022-08-31T16:53:32.642Z,23.5
2022-08-31T17:08:32.635Z,22.7
2022-08-31T17:23:32.665Z,22.4
2022-08-31T17:38:32.704Z,21.9
2022-08-31T17:53:32.778Z,21.3
2022-08-31T18:08:32.823Z,21.1
2022-08-31T18:23:32.859Z,20.6
2022-08-31T18:37:32.831Z,20.5
2022-08-31T18:51:32.834Z,20.3
2022-08-31T19:05:32.864Z,20.1
2022-08-31T19:20:32.992Z,20.1
2022-08-31T19:34:32.994Z,19.8
2022-08-31T19:48:43.606Z,19.7
2022-08-31T20:02:33.087Z,19.6
2022-08-31T20:16:33.268Z,19.5
2022-08-31T20:30:33.020Z,19.7
2022-08-31T20:44:33.024Z,19.7
2022-08-31T20:58:33.058Z,19.9
2022-08-31T21:12:33.036Z,19.8
2022-08-31T21:26:35.513Z,19.7
2022-08-31T21:40:33.144Z,19.5
2022-08-31T21:54:33.029Z,19.7
2022-08-31T22:08:33.113Z,19.6
2022-08-31T22:22:33.087Z,19.5
2022-08-31T22:36:33.036Z,19.5
2022-08-31T22:50:33.381Z,19.2
2022-08-31T23:04:33.878Z,19.4
2022-08-31T23:18:33.835Z,19.3
2022-08-31T23:32:33.832Z,19.3
2022-08-31T23:46:33.888Z,20.0
